Ohyamamaru — JG5507 — position and weather

sailwx.info

Track history (hours):
 
Tides and Currents Weather Stations Pressure Air Temp Water Temp Dewpoint Dewpoint Depression Visibility Wind Speed Wind Dir Waves Ship Positions

Ohyamamaru

Last reported at 2017-Nov-30 01:07 UTC. Time now 2017-Dec-16 13:00 UTC.
Position N 35°29' E 139°39'.
Warning: this ship's position is 16 days out of date.

Length 36 m; draft 4.4 m.

Type: Tug. MMSI: 431001114.

Date/timePositionNaut miles runAvg speedWind from/ knotsBaromVisibWave heightAir tempDewpointWater temp
2017-Nov-30 01:07N 35°29' E 139°39'0 0.1
2017-Nov-30 01:01N 35°29' E 139°39'1 3.0
2017-Nov-30 00:30N 35°28' E 139°40'2 4.4
2017-Nov-30 00:01N 35°26' E 139°42'3 5.8
2017-Nov-29 23:31N 35°28' E 139°40'1 1.6
2017-Nov-29 23:01N 35°29' E 139°39'1 2.8
2017-Nov-29 22:30N 35°28' E 139°40'510.6
2017-Nov-29 22:00N 35°29' E 139°46'510.4
2017-Nov-29 21:30N 35°34' E 139°49'510.1
2017-Nov-29 21:00N 35°38' E 139°46'0 0.0
2017-Nov-29 20:31N 35°38' E 139°46'0 0.0
2017-Nov-29 20:00N 35°38' E 139°46'0 0.0
2017-Nov-29 19:30N 35°38' E 139°46'0 0.0
2017-Nov-29 19:00N 35°38' E 139°46'0 0.0
2017-Nov-29 18:31N 35°38' E 139°46'0 0.0
2017-Nov-29 18:01N 35°38' E 139°46'0 0.0
2017-Nov-29 17:30N 35°38' E 139°46'0 0.0
2017-Nov-29 17:00N 35°38' E 139°46'0 0.0
2017-Nov-29 16:30N 35°38' E 139°46'0 0.0
2017-Nov-29 16:01N 35°38' E 139°46'0 0.0
2017-Nov-29 15:30N 35°38' E 139°46'0 0.0
2017-Nov-29 14:58N 35°38' E 139°46'0 0.0
2017-Nov-29 14:30N 35°38' E 139°46'0 0.0
2017-Nov-29 14:00N 35°38' E 139°46'0 0.0
2017-Nov-29 13:30N 35°38' E 139°46'0 0.0
2017-Nov-29 13:00N 35°38' E 139°46'0 0.0
2017-Nov-29 12:30N 35°38' E 139°46'0 0.0
2017-Nov-29 12:00N 35°38' E 139°46'0 0.0
2017-Nov-29 11:30N 35°38' E 139°46'0 0.0
2017-Nov-29 11:00N 35°38' E 139°46'0 0.0
2017-Nov-29 10:30N 35°38' E 139°46'0 0.0
2017-Nov-29 10:01N 35°38' E 139°46'0 0.0
2017-Nov-29 09:29N 35°38' E 139°46'0 0.0
2017-Nov-29 09:00N 35°38' E 139°46'0 0.0
2017-Nov-29 08:29N 35°38' E 139°46'1 1.5
2017-Nov-29 08:01N 35°38' E 139°46'2 4.2
2017-Nov-29 07:30N 35°36' E 139°48'3 5.2
2017-Nov-29 06:58N 35°38' E 139°46'0 0.0
2017-Nov-29 06:30N 35°38' E 139°46'0 0.1
2017-Nov-29 06:00N 35°38' E 139°45'0 0.0
2017-Nov-29 05:30N 35°38' E 139°45'0 0.0
2017-Nov-29 05:00N 35°38' E 139°45'0 0.0
2017-Nov-29 04:30N 35°38' E 139°45'0 0.1
2017-Nov-29 03:59N 35°38' E 139°46'0 0.0
2017-Nov-29 03:24N 35°38' E 139°46'0 0.0
2017-Nov-29 03:00N 35°38' E 139°46'0 0.0
2017-Nov-29 02:29N 35°38' E 139°46'0 0.0
2017-Nov-29 01:59N 35°38' E 139°46'0 0.0
2017-Nov-29 01:31N 35°38' E 139°46'0 0.0
2017-Nov-29 01:00N 35°38' E 139°46'0 0.0
2017-Nov-29 00:30N 35°38' E 139°46'0 0.0
2017-Nov-29 00:00N 35°38' E 139°46'0 0.0
2017-Nov-28 23:30N 35°38' E 139°46'0 0.0
2017-Nov-28 23:00N 35°38' E 139°46'0 0.0
2017-Nov-28 22:30N 35°38' E 139°46'0 0.0
2017-Nov-28 22:00N 35°38' E 139°46'0 0.0
2017-Nov-28 21:30N 35°38' E 139°46'0 0.0
2017-Nov-28 21:00N 35°38' E 139°46'0 0.0
2017-Nov-28 20:30N 35°38' E 139°46'0 0.0
2017-Nov-28 20:01N 35°38' E 139°46'0 0.0
2017-Nov-28 19:31N 35°38' E 139°46'0 0.0
2017-Nov-28 19:01N 35°38' E 139°46'0 0.0
2017-Nov-28 18:31N 35°38' E 139°46'0 0.0
2017-Nov-28 18:01N 35°38' E 139°46'0 0.0
2017-Nov-28 17:30N 35°38' E 139°46'0 0.0
2017-Nov-28 17:00N 35°38' E 139°46'0 0.0
2017-Nov-28 16:30N 35°38' E 139°46'0 0.0
2017-Nov-28 16:00N 35°38' E 139°46'0 0.0
2017-Nov-28 15:00N 35°38' E 139°46'0 0.0
2017-Nov-28 14:30N 35°38' E 139°46'0 0.0
2017-Nov-28 14:00N 35°38' E 139°46'0 0.0
2017-Nov-28 13:30N 35°38' E 139°46'0 0.0
2017-Nov-28 13:00N 35°38' E 139°46'0 0.0
2017-Nov-28 12:30N 35°38' E 139°46'0 0.0
2017-Nov-28 12:00N 35°38' E 139°46'0 0.0
2017-Nov-28 11:30N 35°38' E 139°46'0 0.0
2017-Nov-28 11:00N 35°38' E 139°46'0 0.0
2017-Nov-28 10:30N 35°38' E 139°46'0 0.0
2017-Nov-28 10:00N 35°38' E 139°46'0 0.0
2017-Nov-28 09:30N 35°38' E 139°46'0 0.0
2017-Nov-28 09:00N 35°38' E 139°46'0 0.0
2017-Nov-28 08:30N 35°38' E 139°46'0 0.0
2017-Nov-28 08:00N 35°38' E 139°46'0 0.0
2017-Nov-28 07:30N 35°38' E 139°46'0 0.0
2017-Nov-28 07:00N 35°38' E 139°46'0 0.0
2017-Nov-28 06:31N 35°38' E 139°46'0 0.0
2017-Nov-28 05:59N 35°38' E 139°46'0 0.0
2017-Nov-28 05:30N 35°38' E 139°46'0 0.0
2017-Nov-28 04:20N 35°38' E 139°46'0 0.0
2017-Nov-28 03:23N 35°38' E 139°46'0 0.0
2017-Nov-28 02:48N 35°38' E 139°46'0 0.0
2017-Nov-28 02:28N 35°38' E 139°46'0 0.0
2017-Nov-28 01:59N 35°38' E 139°46'0 0.0
2017-Nov-28 01:27N 35°38' E 139°46'0 0.0
2017-Nov-28 01:00N 35°38' E 139°46'0 0.0
2017-Nov-28 00:26N 35°38' E 139°46'0 0.0
2017-Nov-28 00:00N 35°38' E 139°46'0 0.0
2017-Nov-27 23:30N 35°38' E 139°46'0 0.0
2017-Nov-27 23:00N 35°38' E 139°46'0 0.0
2017-Nov-27 22:30N 35°38' E 139°46'0 0.0
2017-Nov-27 22:00N 35°38' E 139°46'0 0.0
2017-Nov-27 21:30N 35°38' E 139°46'0 0.0
2017-Nov-27 21:01N 35°38' E 139°46'0 0.0
2017-Nov-27 20:30N 35°38' E 139°46'0 0.0
2017-Nov-27 20:01N 35°38' E 139°46'0 0.0
2017-Nov-27 19:30N 35°38' E 139°46'0 0.0
2017-Nov-27 19:00N 35°38' E 139°46'0 0.0
2017-Nov-27 18:30N 35°38' E 139°46'0 0.0
2017-Nov-27 18:00N 35°38' E 139°46'0 0.0
2017-Nov-27 17:31N 35°38' E 139°46'0 0.0
2017-Nov-27 17:00N 35°38' E 139°46'0 0.0
2017-Nov-27 16:30N 35°38' E 139°46'0 0.0
2017-Nov-27 16:00N 35°38' E 139°46'0 0.0
2017-Nov-27 13:07N 35°38' E 139°46'0 0.0
2017-Nov-27 12:59N 35°38' E 139°46'0 0.0
2017-Nov-27 12:29N 35°38' E 139°46'0 0.0
2017-Nov-27 12:00N 35°38' E 139°46'0 0.0
2017-Nov-27 11:30N 35°38' E 139°46'0 0.0
2017-Nov-27 11:00N 35°38' E 139°46'0 0.0
2017-Nov-27 10:30N 35°38' E 139°46'0 0.0
2017-Nov-27 10:01N 35°38' E 139°46'0 0.0
2017-Nov-27 09:30N 35°38' E 139°46'0 0.0
2017-Nov-27 09:01N 35°38' E 139°46'0 0.0
2017-Nov-27 08:30N 35°38' E 139°46'0 0.0
2017-Nov-27 08:00N 35°38' E 139°46'0 0.0
2017-Nov-27 07:30N 35°38' E 139°46'0 0.0
2017-Nov-27 06:59N 35°38' E 139°46'0 0.0
2017-Nov-27 06:30N 35°38' E 139°46'0 0.0
2017-Nov-27 06:00N 35°38' E 139°46'3 5.8
2017-Nov-27 05:31N 35°35' E 139°47'1 1.8
2017-Nov-27 05:00N 35°36' E 139°46'2 4.1
2017-Nov-27 04:31N 35°38' E 139°46'0 0.0
2017-Nov-27 04:00N 35°38' E 139°46'0 0.0
2017-Nov-27 03:30N 35°38' E 139°46'0 0.0
2017-Nov-27 02:59N 35°38' E 139°46'0 0.0
2017-Nov-27 02:30N 35°38' E 139°46'0 0.0
2017-Nov-27 02:00N 35°38' E 139°46'0 0.0
2017-Nov-27 01:30N 35°38' E 139°46'0 0.0
2017-Nov-27 01:00N 35°38' E 139°46'0 0.0
2017-Nov-27 00:30N 35°38' E 139°46'0 0.0
2017-Nov-27 00:00N 35°38' E 139°46'0 0.0
2017-Nov-26 23:31N 35°38' E 139°46'0 0.0
2017-Nov-26 23:01N 35°38' E 139°46'0 0.0
2017-Nov-26 22:28N 35°38' E 139°46'0 0.0
2017-Nov-26 22:00N 35°38' E 139°46'0 0.0
2017-Nov-26 21:30N 35°38' E 139°46'0 0.0
2017-Nov-26 21:00N 35°38' E 139°46'0 0.0
2017-Nov-26 20:30N 35°38' E 139°46'0 0.0
2017-Nov-26 20:01N 35°38' E 139°46'0 0.0
2017-Nov-26 19:30N 35°38' E 139°46'0 0.0
2017-Nov-26 19:00N 35°38' E 139°46'0 0.0
2017-Nov-26 18:30N 35°38' E 139°46'0 0.0
2017-Nov-26 18:00N 35°38' E 139°46'0 0.0
2017-Nov-26 17:31N 35°38' E 139°46'0 0.0
2017-Nov-26 17:00N 35°38' E 139°46'0 0.0
2017-Nov-26 16:30N 35°38' E 139°46'0 0.0
2017-Nov-26 16:00N 35°38' E 139°46'0 0.0
2017-Nov-26 15:30N 35°38' E 139°46'0 0.0
2017-Nov-26 15:00N 35°38' E 139°46'0 0.0
2017-Nov-26 14:30N 35°38' E 139°46'0 0.0
2017-Nov-26 14:00N 35°38' E 139°46'0 0.0
2017-Nov-26 13:30N 35°38' E 139°46'0 0.0
2017-Nov-26 13:01N 35°38' E 139°46'0 0.0
2017-Nov-26 12:30N 35°38' E 139°46'0 0.0
2017-Nov-26 12:00N 35°38' E 139°46'0 0.0
2017-Nov-26 11:30N 35°38' E 139°46'0 0.0
2017-Nov-26 11:01N 35°38' E 139°46'0 0.0
2017-Nov-26 10:30N 35°38' E 139°46'0 0.0
2017-Nov-26 10:00N 35°38' E 139°46'0 0.0
2017-Nov-26 09:30N 35°38' E 139°46'0 0.0
2017-Nov-26 09:00N 35°38' E 139°46'0 0.0
2017-Nov-26 08:31N 35°38' E 139°46'0 0.0
2017-Nov-26 08:00N 35°38' E 139°46'0 0.0
2017-Nov-26 07:30N 35°38' E 139°46'0 0.0
2017-Nov-26 07:00N 35°38' E 139°46'0 0.0
2017-Nov-26 06:30N 35°38' E 139°46'0 0.0
2017-Nov-26 06:00N 35°38' E 139°46'0 0.0
2017-Nov-26 05:30N 35°38' E 139°46'0 0.0
2017-Nov-26 05:00N 35°38' E 139°46'0 0.0
2017-Nov-26 04:30N 35°38' E 139°46'3 6.1
2017-Nov-26 04:00N 35°36' E 139°47'1 2.4
2017-Nov-26 03:31N 35°37' E 139°47'2 3.3
2017-Nov-26 03:00N 35°38' E 139°46'0 0.4
2017-Nov-26 02:25N 35°38' E 139°46'0 0.0
2017-Nov-26 01:59N 35°38' E 139°46'0 0.0
2017-Nov-26 01:30N 35°38' E 139°46'0 0.0
2017-Nov-26 01:00N 35°38' E 139°46'0 0.0
2017-Nov-26 00:30N 35°38' E 139°46'0 0.7
2017-Nov-26 00:00N 35°39' E 139°46'2 3.5
2017-Nov-25 23:30N 35°37' E 139°46'3 5.5
2017-Nov-25 23:00N 35°37' E 139°49'1 1.6
2017-Nov-25 22:30N 35°37' E 139°49'3 5.6
2017-Nov-25 22:00N 35°38' E 139°46'0 0.0
2017-Nov-25 21:30N 35°38' E 139°46'0 0.0
2017-Nov-25 21:00N 35°38' E 139°46'0 0.0
2017-Nov-25 20:30N 35°38' E 139°46'0 0.0
2017-Nov-25 20:00N 35°38' E 139°46'0 0.0
2017-Nov-25 19:30N 35°38' E 139°46'0 0.0
2017-Nov-25 19:00N 35°38' E 139°46'0 0.0
2017-Nov-25 18:30N 35°38' E 139°46'0 0.0
2017-Nov-25 18:00N 35°38' E 139°46'0 0.0
2017-Nov-25 17:30N 35°38' E 139°46'0 0.0
2017-Nov-25 17:01N 35°38' E 139°46'0 0.0
2017-Nov-25 16:30N 35°38' E 139°46'0 0.0
2017-Nov-25 16:01N 35°38' E 139°46'0 0.0
2017-Nov-25 15:31N 35°38' E 139°46'0 0.0
2017-Nov-25 15:00N 35°38' E 139°46'0 0.0
2017-Nov-25 14:30N 35°38' E 139°46'0 0.0
2017-Nov-25 13:51N 35°38' E 139°46'0 0.0
2017-Nov-25 13:30N 35°38' E 139°46'0 0.0
2017-Nov-25 12:31N 35°38' E 139°46'0 0.0
2017-Nov-25 12:30N 35°38' E 139°46'0 0.0
2017-Nov-25 12:00N 35°38' E 139°46'0 0.0
2017-Nov-25 10:56N 35°38' E 139°46'0 0.0
2017-Nov-25 10:28N 35°38' E 139°46'0 0.0
2017-Nov-25 09:50N 35°38' E 139°46'2 6.2
2017-Nov-25 09:30N 35°37' E 139°47'1 1.7
2017-Nov-25 09:01N 35°36' E 139°47'2 3.8
2017-Nov-25 08:30N 35°34' E 139°49'2 4.3
2017-Nov-25 08:00N 35°35' E 139°47'0 0.0
2017-Nov-25 07:30N 35°35' E 139°47'0 0.0
2017-Nov-25 07:01N 35°35' E 139°47'0 0.0
2017-Nov-25 06:30N 35°35' E 139°47'1 1.9
2017-Nov-25 06:00N 35°36' E 139°47'1 2.6
2017-Nov-25 05:30N 35°37' E 139°46'1 2.1
2017-Nov-25 05:00N 35°38' E 139°45'0 0.0
2017-Nov-25 04:31N 35°38' E 139°45'0 0.0
2017-Nov-25 04:00N 35°38' E 139°45'0 0.0
2017-Nov-25 03:30N 35°38' E 139°45'0 0.0
2017-Nov-25 03:00N 35°38' E 139°45'0 0.0
2017-Nov-25 02:30N 35°38' E 139°45'0 0.0
2017-Nov-25 02:01N 35°38' E 139°45'0 0.0
2017-Nov-25 01:31N 35°38' E 139°45'0 0.0
2017-Nov-25 01:01N 35°38' E 139°45'0 0.0
2017-Nov-25 00:30N 35°38' E 139°45'0 0.0
2017-Nov-25 00:00N 35°38' E 139°45'2 3.5
2017-Nov-24 23:30N 35°37' E 139°46'0 0.7
2017-Nov-24 23:00N 35°36' E 139°47'3 5.5
2017-Nov-24 22:29N 35°34' E 139°49'2 4.8
2017-Nov-24 22:00N 35°36' E 139°47'3 5.1
2017-Nov-24 21:30N 35°38' E 139°45'0 0.0
2017-Nov-24 21:00N 35°38' E 139°45'0 0.0
2017-Nov-24 20:31N 35°38' E 139°45'0 0.0
2017-Nov-24 20:00N 35°38' E 139°45'0 0.0
2017-Nov-24 19:31N 35°38' E 139°45'0 0.0
2017-Nov-24 19:00N 35°38' E 139°45'0 0.0
2017-Nov-24 18:30N 35°38' E 139°45'0 0.0
2017-Nov-24 18:01N 35°38' E 139°45'0 0.0
2017-Nov-24 17:30N 35°38' E 139°45'0 0.0
2017-Nov-24 17:01N 35°38' E 139°45'0 0.0
2017-Nov-24 16:30N 35°38' E 139°45'0 0.0
2017-Nov-24 16:00N 35°38' E 139°45'0 0.0
2017-Nov-24 15:30N 35°38' E 139°45'0 0.0
2017-Nov-24 15:00N 35°38' E 139°45'0 0.0
2017-Nov-24 14:30N 35°38' E 139°45'0 0.0
2017-Nov-24 14:01N 35°38' E 139°45'0 0.0
2017-Nov-24 13:31N 35°38' E 139°45'0 0.0
2017-Nov-24 13:00N 35°38' E 139°45'0 0.0
2017-Nov-24 12:30N 35°38' E 139°45'0 0.0
2017-Nov-24 12:00N 35°38' E 139°45'0 0.0
2017-Nov-24 11:30N 35°38' E 139°45'0 0.0
2017-Nov-24 11:00N 35°38' E 139°45'0 0.0
2017-Nov-24 10:30N 35°38' E 139°45'0 0.0
2017-Nov-24 10:00N 35°38' E 139°45'0 0.0
2017-Nov-24 09:30N 35°38' E 139°45'0 0.0
2017-Nov-24 09:00N 35°38' E 139°45'0 0.0
2017-Nov-24 08:30N 35°38' E 139°45'0 0.0
2017-Nov-24 08:01N 35°38' E 139°45'0 0.0
2017-Nov-24 07:31N 35°38' E 139°45'0 0.0
2017-Nov-24 07:00N 35°38' E 139°45'0 0.0
2017-Nov-24 06:30N 35°38' E 139°45'0 0.0
2017-Nov-24 06:00N 35°38' E 139°45'0 0.0
2017-Nov-24 05:30N 35°38' E 139°45'0 0.0
2017-Nov-24 05:00N 35°38' E 139°45'0 0.0
2017-Nov-24 04:31N 35°38' E 139°45'0 0.0
2017-Nov-24 04:01N 35°38' E 139°45'0 0.0
2017-Nov-24 03:31N 35°38' E 139°45'0 0.0
2017-Nov-24 03:01N 35°38' E 139°45'0 0.0
2017-Nov-24 02:30N 35°38' E 139°45'0 0.0
2017-Nov-24 02:00N 35°38' E 139°45'0 0.0
2017-Nov-24 01:30N 35°38' E 139°45'0 0.0
2017-Nov-24 01:00N 35°38' E 139°45'0 0.0
2017-Nov-24 00:30N 35°38' E 139°45'0 0.0
2017-Nov-24 00:00N 35°38' E 139°45'0 0.0
2017-Nov-23 23:30N 35°38' E 139°45'0 0.0
2017-Nov-23 23:00N 35°38' E 139°45'0 0.0
2017-Nov-23 22:30N 35°38' E 139°45'0 0.0
2017-Nov-23 22:00N 35°38' E 139°45'0 0.0
2017-Nov-23 21:31N 35°38' E 139°45'0 0.0
2017-Nov-23 21:01N 35°38' E 139°45'0 0.0
2017-Nov-23 20:30N 35°38' E 139°45'0 0.0
2017-Nov-23 20:00N 35°38' E 139°45'0 0.0
2017-Nov-23 19:30N 35°38' E 139°45'0 0.0
2017-Nov-23 19:00N 35°38' E 139°45'0 0.0
2017-Nov-23 18:30N 35°38' E 139°45'0 0.0
2017-Nov-23 18:00N 35°38' E 139°45'0 0.0
2017-Nov-23 17:30N 35°38' E 139°45'0 0.0
2017-Nov-23 17:00N 35°38' E 139°45'0 0.0
2017-Nov-23 16:30N 35°38' E 139°45'0 0.0
2017-Nov-23 16:00N 35°38' E 139°45'0 0.0
2017-Nov-23 15:30N 35°38' E 139°45'0 0.0
2017-Nov-23 15:00N 35°38' E 139°45'1 1.1
2017-Nov-23 14:30N 35°38' E 139°46'0 1.0
2017-Nov-23 14:00N 35°38' E 139°45'2 4.0
2017-Nov-23 13:30N 35°36' E 139°47'0 0.4
2017-Nov-23 13:00N 35°36' E 139°47'4 7.0
2017-Nov-23 12:30N 35°34' E 139°50'3 5.3
2017-Nov-23 12:00N 35°32' E 139°53'1 1.2
2017-Nov-23 11:30N 35°32' E 139°53'611.5
2017-Nov-23 11:00N 35°35' E 139°47'3 6.8
2017-Nov-23 10:31N 35°38' E 139°45'1 1.8
2017-Nov-23 10:00N 35°37' E 139°46'1 3.0
2017-Nov-23 09:31N 35°36' E 139°47'2 3.6
2017-Nov-23 09:00N 35°35' E 139°48'1 1.6
2017-Nov-23 08:30N 35°35' E 139°47'4 7.2
2017-Nov-23 08:00N 35°38' E 139°45'0 0.0
2017-Nov-23 07:30N 35°38' E 139°45'0 0.0
2017-Nov-23 07:00N 35°38' E 139°45'0 0.0
2017-Nov-23 06:30N 35°38' E 139°45'0 0.0
2017-Nov-23 06:00N 35°38' E 139°45'0 0.0
2017-Nov-23 05:31N 35°38' E 139°45'0 0.0
2017-Nov-23 05:00N 35°38' E 139°45'0 0.0
2017-Nov-23 04:31N 35°38' E 139°45'0 0.0
2017-Nov-23 04:00N 35°38' E 139°45'0 0.0
2017-Nov-23 03:30N 35°38' E 139°45'0 0.0
2017-Nov-23 03:00N 35°38' E 139°45'0 0.0
2017-Nov-23 02:31N 35°38' E 139°45'0 0.0
2017-Nov-23 02:01N 35°38' E 139°45'0 0.0
2017-Nov-23 01:30N 35°38' E 139°45'0 0.0
2017-Nov-23 01:00N 35°38' E 139°45'0 0.0
2017-Nov-23 00:30N 35°38' E 139°45'0 0.1
2017-Nov-23 00:00N 35°38' E 139°45'2 3.9
2017-Nov-22 23:30N 35°37' E 139°47'2 3.1
2017-Nov-22 23:00N 35°35' E 139°47'2 4.2
2017-Nov-22 22:30N 35°33' E 139°49'3 6.2
2017-Nov-22 22:00N 35°36' E 139°47'2 5.0
2017-Nov-22 21:30N 35°38' E 139°45'0 0.0
2017-Nov-22 21:00N 35°38' E 139°45'0 0.0
2017-Nov-22 20:30N 35°38' E 139°45'0 0.0
2017-Nov-22 20:00N 35°38' E 139°45'0 0.0
2017-Nov-22 19:31N 35°38' E 139°45'  
Track history (hours):
 
Tides and Currents Weather Stations Pressure Air Temp Water Temp Dewpoint Dewpoint Depression Visibility Wind Speed Wind Dir Waves Ship Positions

Ohyamamaru

Last reported at 2017-Nov-30 01:07 UTC. Time now 2017-Dec-16 13:00 UTC.
Position N 35°29' E 139°39'.
Warning: this ship's position is 16 days out of date.

Length 36 m; draft 4.4 m.

Type: Tug. MMSI: 431001114.

Date/timePositionNaut miles runAvg speedWind from/ knotsBaromVisibWave heightAir tempDewpointWater temp
2017-Nov-30 01:07N 35°29' E 139°39'0 0.1
2017-Nov-30 01:01N 35°29' E 139°39'1 3.0
2017-Nov-30 00:30N 35°28' E 139°40'2 4.4
2017-Nov-30 00:01N 35°26' E 139°42'3 5.8
2017-Nov-29 23:31N 35°28' E 139°40'1 1.6
2017-Nov-29 23:01N 35°29' E 139°39'1 2.8
2017-Nov-29 22:30N 35°28' E 139°40'510.6
2017-Nov-29 22:00N 35°29' E 139°46'510.4
2017-Nov-29 21:30N 35°34' E 139°49'510.1
2017-Nov-29 21:00N 35°38' E 139°46'0 0.0
2017-Nov-29 20:31N 35°38' E 139°46'0 0.0
2017-Nov-29 20:00N 35°38' E 139°46'0 0.0
2017-Nov-29 19:30N 35°38' E 139°46'0 0.0
2017-Nov-29 19:00N 35°38' E 139°46'0 0.0
2017-Nov-29 18:31N 35°38' E 139°46'0 0.0
2017-Nov-29 18:01N 35°38' E 139°46'0 0.0
2017-Nov-29 17:30N 35°38' E 139°46'0 0.0
2017-Nov-29 17:00N 35°38' E 139°46'0 0.0
2017-Nov-29 16:30N 35°38' E 139°46'0 0.0
2017-Nov-29 16:01N 35°38' E 139°46'0 0.0
2017-Nov-29 15:30N 35°38' E 139°46'0 0.0
2017-Nov-29 14:58N 35°38' E 139°46'0 0.0
2017-Nov-29 14:30N 35°38' E 139°46'0 0.0
2017-Nov-29 14:00N 35°38' E 139°46'0 0.0
2017-Nov-29 13:30N 35°38' E 139°46'0 0.0
2017-Nov-29 13:00N 35°38' E 139°46'0 0.0
2017-Nov-29 12:30N 35°38' E 139°46'0 0.0
2017-Nov-29 12:00N 35°38' E 139°46'0 0.0
2017-Nov-29 11:30N 35°38' E 139°46'0 0.0
2017-Nov-29 11:00N 35°38' E 139°46'0 0.0
2017-Nov-29 10:30N 35°38' E 139°46'0 0.0
2017-Nov-29 10:01N 35°38' E 139°46'0 0.0
2017-Nov-29 09:29N 35°38' E 139°46'0 0.0
2017-Nov-29 09:00N 35°38' E 139°46'0 0.0
2017-Nov-29 08:29N 35°38' E 139°46'1 1.5
2017-Nov-29 08:01N 35°38' E 139°46'2 4.2
2017-Nov-29 07:30N 35°36' E 139°48'3 5.2
2017-Nov-29 06:58N 35°38' E 139°46'0 0.0
2017-Nov-29 06:30N 35°38' E 139°46'0 0.1
2017-Nov-29 06:00N 35°38' E 139°45'0 0.0
2017-Nov-29 05:30N 35°38' E 139°45'0 0.0
2017-Nov-29 05:00N 35°38' E 139°45'0 0.0
2017-Nov-29 04:30N 35°38' E 139°45'0 0.1
2017-Nov-29 03:59N 35°38' E 139°46'0 0.0
2017-Nov-29 03:24N 35°38' E 139°46'0 0.0
2017-Nov-29 03:00N 35°38' E 139°46'0 0.0
2017-Nov-29 02:29N 35°38' E 139°46'0 0.0
2017-Nov-29 01:59N 35°38' E 139°46'0 0.0
2017-Nov-29 01:31N 35°38' E 139°46'0 0.0
2017-Nov-29 01:00N 35°38' E 139°46'0 0.0
2017-Nov-29 00:30N 35°38' E 139°46'0 0.0
2017-Nov-29 00:00N 35°38' E 139°46'0 0.0
2017-Nov-28 23:30N 35°38' E 139°46'0 0.0
2017-Nov-28 23:00N 35°38' E 139°46'0 0.0
2017-Nov-28 22:30N 35°38' E 139°46'0 0.0
2017-Nov-28 22:00N 35°38' E 139°46'0 0.0
2017-Nov-28 21:30N 35°38' E 139°46'0 0.0
2017-Nov-28 21:00N 35°38' E 139°46'0 0.0
2017-Nov-28 20:30N 35°38' E 139°46'0 0.0
2017-Nov-28 20:01N 35°38' E 139°46'0 0.0
2017-Nov-28 19:31N 35°38' E 139°46'0 0.0
2017-Nov-28 19:01N 35°38' E 139°46'0 0.0
2017-Nov-28 18:31N 35°38' E 139°46'0 0.0
2017-Nov-28 18:01N 35°38' E 139°46'0 0.0
2017-Nov-28 17:30N 35°38' E 139°46'0 0.0
2017-Nov-28 17:00N 35°38' E 139°46'0 0.0
2017-Nov-28 16:30N 35°38' E 139°46'0 0.0
2017-Nov-28 16:00N 35°38' E 139°46'0 0.0
2017-Nov-28 15:00N 35°38' E 139°46'0 0.0
2017-Nov-28 14:30N 35°38' E 139°46'0 0.0
2017-Nov-28 14:00N 35°38' E 139°46'0 0.0
2017-Nov-28 13:30N 35°38' E 139°46'0 0.0
2017-Nov-28 13:00N 35°38' E 139°46'0 0.0
2017-Nov-28 12:30N 35°38' E 139°46'0 0.0
2017-Nov-28 12:00N 35°38' E 139°46'0 0.0
2017-Nov-28 11:30N 35°38' E 139°46'0 0.0
2017-Nov-28 11:00N 35°38' E 139°46'0 0.0
2017-Nov-28 10:30N 35°38' E 139°46'0 0.0
2017-Nov-28 10:00N 35°38' E 139°46'0 0.0
2017-Nov-28 09:30N 35°38' E 139°46'0 0.0
2017-Nov-28 09:00N 35°38' E 139°46'0 0.0
2017-Nov-28 08:30N 35°38' E 139°46'0 0.0
2017-Nov-28 08:00N 35°38' E 139°46'0 0.0
2017-Nov-28 07:30N 35°38' E 139°46'0 0.0
2017-Nov-28 07:00N 35°38' E 139°46'0 0.0
2017-Nov-28 06:31N 35°38' E 139°46'0 0.0
2017-Nov-28 05:59N 35°38' E 139°46'0 0.0
2017-Nov-28 05:30N 35°38' E 139°46'0 0.0
2017-Nov-28 04:20N 35°38' E 139°46'0 0.0
2017-Nov-28 03:23N 35°38' E 139°46'0 0.0
2017-Nov-28 02:48N 35°38' E 139°46'0 0.0
2017-Nov-28 02:28N 35°38' E 139°46'0 0.0
2017-Nov-28 01:59N 35°38' E 139°46'0 0.0
2017-Nov-28 01:27N 35°38' E 139°46'0 0.0
2017-Nov-28 01:00N 35°38' E 139°46'0 0.0
2017-Nov-28 00:26N 35°38' E 139°46'0 0.0
2017-Nov-28 00:00N 35°38' E 139°46'0 0.0
2017-Nov-27 23:30N 35°38' E 139°46'0 0.0
2017-Nov-27 23:00N 35°38' E 139°46'0 0.0
2017-Nov-27 22:30N 35°38' E 139°46'0 0.0
2017-Nov-27 22:00N 35°38' E 139°46'0 0.0
2017-Nov-27 21:30N 35°38' E 139°46'0 0.0
2017-Nov-27 21:01N 35°38' E 139°46'0 0.0
2017-Nov-27 20:30N 35°38' E 139°46'0 0.0
2017-Nov-27 20:01N 35°38' E 139°46'0 0.0
2017-Nov-27 19:30N 35°38' E 139°46'0 0.0
2017-Nov-27 19:00N 35°38' E 139°46'0 0.0
2017-Nov-27 18:30N 35°38' E 139°46'0 0.0
2017-Nov-27 18:00N 35°38' E 139°46'0 0.0
2017-Nov-27 17:31N 35°38' E 139°46'0 0.0
2017-Nov-27 17:00N 35°38' E 139°46'0 0.0
2017-Nov-27 16:30N 35°38' E 139°46'0 0.0
2017-Nov-27 16:00N 35°38' E 139°46'0 0.0
2017-Nov-27 13:07N 35°38' E 139°46'0 0.0
2017-Nov-27 12:59N 35°38' E 139°46'0 0.0
2017-Nov-27 12:29N 35°38' E 139°46'0 0.0
2017-Nov-27 12:00N 35°38' E 139°46'0 0.0
2017-Nov-27 11:30N 35°38' E 139°46'0 0.0
2017-Nov-27 11:00N 35°38' E 139°46'0 0.0
2017-Nov-27 10:30N 35°38' E 139°46'0 0.0
2017-Nov-27 10:01N 35°38' E 139°46'0 0.0
2017-Nov-27 09:30N 35°38' E 139°46'0 0.0
2017-Nov-27 09:01N 35°38' E 139°46'0 0.0
2017-Nov-27 08:30N 35°38' E 139°46'0 0.0
2017-Nov-27 08:00N 35°38' E 139°46'0 0.0
2017-Nov-27 07:30N 35°38' E 139°46'0 0.0
2017-Nov-27 06:59N 35°38' E 139°46'0 0.0
2017-Nov-27 06:30N 35°38' E 139°46'0 0.0
2017-Nov-27 06:00N 35°38' E 139°46'3 5.8
2017-Nov-27 05:31N 35°35' E 139°47'1 1.8
2017-Nov-27 05:00N 35°36' E 139°46'2 4.1
2017-Nov-27 04:31N 35°38' E 139°46'0 0.0
2017-Nov-27 04:00N 35°38' E 139°46'0 0.0
2017-Nov-27 03:30N 35°38' E 139°46'0 0.0
2017-Nov-27 02:59N 35°38' E 139°46'0 0.0
2017-Nov-27 02:30N 35°38' E 139°46'0 0.0
2017-Nov-27 02:00N 35°38' E 139°46'0 0.0
2017-Nov-27 01:30N 35°38' E 139°46'0 0.0
2017-Nov-27 01:00N 35°38' E 139°46'0 0.0
2017-Nov-27 00:30N 35°38' E 139°46'0 0.0
2017-Nov-27 00:00N 35°38' E 139°46'0 0.0
2017-Nov-26 23:31N 35°38' E 139°46'0 0.0
2017-Nov-26 23:01N 35°38' E 139°46'0 0.0
2017-Nov-26 22:28N 35°38' E 139°46'0 0.0
2017-Nov-26 22:00N 35°38' E 139°46'0 0.0
2017-Nov-26 21:30N 35°38' E 139°46'0 0.0
2017-Nov-26 21:00N 35°38' E 139°46'0 0.0
2017-Nov-26 20:30N 35°38' E 139°46'0 0.0
2017-Nov-26 20:01N 35°38' E 139°46'0 0.0
2017-Nov-26 19:30N 35°38' E 139°46'0 0.0
2017-Nov-26 19:00N 35°38' E 139°46'0 0.0
2017-Nov-26 18:30N 35°38' E 139°46'0 0.0
2017-Nov-26 18:00N 35°38' E 139°46'0 0.0
2017-Nov-26 17:31N 35°38' E 139°46'0 0.0
2017-Nov-26 17:00N 35°38' E 139°46'0 0.0
2017-Nov-26 16:30N 35°38' E 139°46'0 0.0
2017-Nov-26 16:00N 35°38' E 139°46'0 0.0
2017-Nov-26 15:30N 35°38' E 139°46'0 0.0
2017-Nov-26 15:00N 35°38' E 139°46'0 0.0
2017-Nov-26 14:30N 35°38' E 139°46'0 0.0
2017-Nov-26 14:00N 35°38' E 139°46'0 0.0
2017-Nov-26 13:30N 35°38' E 139°46'0 0.0
2017-Nov-26 13:01N 35°38' E 139°46'0 0.0
2017-Nov-26 12:30N 35°38' E 139°46'0 0.0
2017-Nov-26 12:00N 35°38' E 139°46'0 0.0
2017-Nov-26 11:30N 35°38' E 139°46'0 0.0
2017-Nov-26 11:01N 35°38' E 139°46'0 0.0
2017-Nov-26 10:30N 35°38' E 139°46'0 0.0
2017-Nov-26 10:00N 35°38' E 139°46'0 0.0
2017-Nov-26 09:30N 35°38' E 139°46'0 0.0
2017-Nov-26 09:00N 35°38' E 139°46'0 0.0
2017-Nov-26 08:31N 35°38' E 139°46'0 0.0
2017-Nov-26 08:00N 35°38' E 139°46'0 0.0
2017-Nov-26 07:30N 35°38' E 139°46'0 0.0
2017-Nov-26 07:00N 35°38' E 139°46'0 0.0
2017-Nov-26 06:30N 35°38' E 139°46'0 0.0
2017-Nov-26 06:00N 35°38' E 139°46'0 0.0
2017-Nov-26 05:30N 35°38' E 139°46'0 0.0
2017-Nov-26 05:00N 35°38' E 139°46'0 0.0
2017-Nov-26 04:30N 35°38' E 139°46'3 6.1
2017-Nov-26 04:00N 35°36' E 139°47'1 2.4
2017-Nov-26 03:31N 35°37' E 139°47'2 3.3
2017-Nov-26 03:00N 35°38' E 139°46'0 0.4
2017-Nov-26 02:25N 35°38' E 139°46'0 0.0
2017-Nov-26 01:59N 35°38' E 139°46'0 0.0
2017-Nov-26 01:30N 35°38' E 139°46'0 0.0
2017-Nov-26 01:00N 35°38' E 139°46'0 0.0
2017-Nov-26 00:30N 35°38' E 139°46'0 0.7
2017-Nov-26 00:00N 35°39' E 139°46'2 3.5
2017-Nov-25 23:30N 35°37' E 139°46'3 5.5
2017-Nov-25 23:00N 35°37' E 139°49'1 1.6
2017-Nov-25 22:30N 35°37' E 139°49'3 5.6
2017-Nov-25 22:00N 35°38' E 139°46'0 0.0
2017-Nov-25 21:30N 35°38' E 139°46'0 0.0
2017-Nov-25 21:00N 35°38' E 139°46'0 0.0
2017-Nov-25 20:30N 35°38' E 139°46'0 0.0
2017-Nov-25 20:00N 35°38' E 139°46'0 0.0
2017-Nov-25 19:30N 35°38' E 139°46'0 0.0
2017-Nov-25 19:00N 35°38' E 139°46'0 0.0
2017-Nov-25 18:30N 35°38' E 139°46'0 0.0
2017-Nov-25 18:00N 35°38' E 139°46'0 0.0
2017-Nov-25 17:30N 35°38' E 139°46'0 0.0
2017-Nov-25 17:01N 35°38' E 139°46'0 0.0
2017-Nov-25 16:30N 35°38' E 139°46'0 0.0
2017-Nov-25 16:01N 35°38' E 139°46'0 0.0
2017-Nov-25 15:31N 35°38' E 139°46'0 0.0
2017-Nov-25 15:00N 35°38' E 139°46'0 0.0
2017-Nov-25 14:30N 35°38' E 139°46'0 0.0
2017-Nov-25 13:51N 35°38' E 139°46'0 0.0
2017-Nov-25 13:30N 35°38' E 139°46'0 0.0
2017-Nov-25 12:31N 35°38' E 139°46'0 0.0
2017-Nov-25 12:30N 35°38' E 139°46'0 0.0
2017-Nov-25 12:00N 35°38' E 139°46'0 0.0
2017-Nov-25 10:56N 35°38' E 139°46'0 0.0
2017-Nov-25 10:28N 35°38' E 139°46'0 0.0
2017-Nov-25 09:50N 35°38' E 139°46'2 6.2
2017-Nov-25 09:30N 35°37' E 139°47'1 1.7
2017-Nov-25 09:01N 35°36' E 139°47'2 3.8
2017-Nov-25 08:30N 35°34' E 139°49'2 4.3
2017-Nov-25 08:00N 35°35' E 139°47'0 0.0
2017-Nov-25 07:30N 35°35' E 139°47'0 0.0
2017-Nov-25 07:01N 35°35' E 139°47'0 0.0
2017-Nov-25 06:30N 35°35' E 139°47'1 1.9
2017-Nov-25 06:00N 35°36' E 139°47'1 2.6
2017-Nov-25 05:30N 35°37' E 139°46'1 2.1
2017-Nov-25 05:00N 35°38' E 139°45'0 0.0
2017-Nov-25 04:31N 35°38' E 139°45'0 0.0
2017-Nov-25 04:00N 35°38' E 139°45'0 0.0
2017-Nov-25 03:30N 35°38' E 139°45'0 0.0
2017-Nov-25 03:00N 35°38' E 139°45'0 0.0
2017-Nov-25 02:30N 35°38' E 139°45'0 0.0
2017-Nov-25 02:01N 35°38' E 139°45'0 0.0
2017-Nov-25 01:31N 35°38' E 139°45'0 0.0
2017-Nov-25 01:01N 35°38' E 139°45'0 0.0
2017-Nov-25 00:30N 35°38' E 139°45'0 0.0
2017-Nov-25 00:00N 35°38' E 139°45'2 3.5
2017-Nov-24 23:30N 35°37' E 139°46'0 0.7
2017-Nov-24 23:00N 35°36' E 139°47'3 5.5
2017-Nov-24 22:29N 35°34' E 139°49'2 4.8
2017-Nov-24 22:00N 35°36' E 139°47'3 5.1
2017-Nov-24 21:30N 35°38' E 139°45'0 0.0
2017-Nov-24 21:00N 35°38' E 139°45'0 0.0
2017-Nov-24 20:31N 35°38' E 139°45'0 0.0
2017-Nov-24 20:00N 35°38' E 139°45'0 0.0
2017-Nov-24 19:31N 35°38' E 139°45'0 0.0
2017-Nov-24 19:00N 35°38' E 139°45'0 0.0
2017-Nov-24 18:30N 35°38' E 139°45'0 0.0
2017-Nov-24 18:01N 35°38' E 139°45'0 0.0
2017-Nov-24 17:30N 35°38' E 139°45'0 0.0
2017-Nov-24 17:01N 35°38' E 139°45'0 0.0
2017-Nov-24 16:30N 35°38' E 139°45'0 0.0
2017-Nov-24 16:00N 35°38' E 139°45'0 0.0
2017-Nov-24 15:30N 35°38' E 139°45'0 0.0
2017-Nov-24 15:00N 35°38' E 139°45'0 0.0
2017-Nov-24 14:30N 35°38' E 139°45'0 0.0
2017-Nov-24 14:01N 35°38' E 139°45'0 0.0
2017-Nov-24 13:31N 35°38' E 139°45'0 0.0
2017-Nov-24 13:00N 35°38' E 139°45'0 0.0
2017-Nov-24 12:30N 35°38' E 139°45'0 0.0
2017-Nov-24 12:00N 35°38' E 139°45'0 0.0
2017-Nov-24 11:30N 35°38' E 139°45'0 0.0
2017-Nov-24 11:00N 35°38' E 139°45'0 0.0
2017-Nov-24 10:30N 35°38' E 139°45'0 0.0
2017-Nov-24 10:00N 35°38' E 139°45'0 0.0
2017-Nov-24 09:30N 35°38' E 139°45'0 0.0
2017-Nov-24 09:00N 35°38' E 139°45'0 0.0
2017-Nov-24 08:30N 35°38' E 139°45'0 0.0
2017-Nov-24 08:01N 35°38' E 139°45'0 0.0
2017-Nov-24 07:31N 35°38' E 139°45'0 0.0
2017-Nov-24 07:00N 35°38' E 139°45'0 0.0
2017-Nov-24 06:30N 35°38' E 139°45'0 0.0
2017-Nov-24 06:00N 35°38' E 139°45'0 0.0
2017-Nov-24 05:30N 35°38' E 139°45'0 0.0
2017-Nov-24 05:00N 35°38' E 139°45'0 0.0
2017-Nov-24 04:31N 35°38' E 139°45'0 0.0
2017-Nov-24 04:01N 35°38' E 139°45'0 0.0
2017-Nov-24 03:31N 35°38' E 139°45'0 0.0
2017-Nov-24 03:01N 35°38' E 139°45'0 0.0
2017-Nov-24 02:30N 35°38' E 139°45'0 0.0
2017-Nov-24 02:00N 35°38' E 139°45'0 0.0
2017-Nov-24 01:30N 35°38' E 139°45'0 0.0
2017-Nov-24 01:00N 35°38' E 139°45'0 0.0
2017-Nov-24 00:30N 35°38' E 139°45'0 0.0
2017-Nov-24 00:00N 35°38' E 139°45'0 0.0
2017-Nov-23 23:30N 35°38' E 139°45'0 0.0
2017-Nov-23 23:00N 35°38' E 139°45'0 0.0
2017-Nov-23 22:30N 35°38' E 139°45'0 0.0
2017-Nov-23 22:00N 35°38' E 139°45'0 0.0
2017-Nov-23 21:31N 35°38' E 139°45'0 0.0
2017-Nov-23 21:01N 35°38' E 139°45'0 0.0
2017-Nov-23 20:30N 35°38' E 139°45'0 0.0
2017-Nov-23 20:00N 35°38' E 139°45'0 0.0
2017-Nov-23 19:30N 35°38' E 139°45'0 0.0
2017-Nov-23 19:00N 35°38' E 139°45'0 0.0
2017-Nov-23 18:30N 35°38' E 139°45'0 0.0
2017-Nov-23 18:00N 35°38' E 139°45'0 0.0
2017-Nov-23 17:30N 35°38' E 139°45'0 0.0
2017-Nov-23 17:00N 35°38' E 139°45'0 0.0
2017-Nov-23 16:30N 35°38' E 139°45'0 0.0
2017-Nov-23 16:00N 35°38' E 139°45'0 0.0
2017-Nov-23 15:30N 35°38' E 139°45'0 0.0
2017-Nov-23 15:00N 35°38' E 139°45'1 1.1
2017-Nov-23 14:30N 35°38' E 139°46'0 1.0
2017-Nov-23 14:00N 35°38' E 139°45'2 4.0
2017-Nov-23 13:30N 35°36' E 139°47'0 0.4
2017-Nov-23 13:00N 35°36' E 139°47'4 7.0
2017-Nov-23 12:30N 35°34' E 139°50'3 5.3
2017-Nov-23 12:00N 35°32' E 139°53'1 1.2
2017-Nov-23 11:30N 35°32' E 139°53'611.5
2017-Nov-23 11:00N 35°35' E 139°47'3 6.8
2017-Nov-23 10:31N 35°38' E 139°45'1 1.8
2017-Nov-23 10:00N 35°37' E 139°46'1 3.0
2017-Nov-23 09:31N 35°36' E 139°47'2 3.6
2017-Nov-23 09:00N 35°35' E 139°48'1 1.6
2017-Nov-23 08:30N 35°35' E 139°47'4 7.2
2017-Nov-23 08:00N 35°38' E 139°45'0 0.0
2017-Nov-23 07:30N 35°38' E 139°45'0 0.0
2017-Nov-23 07:00N 35°38' E 139°45'0 0.0
2017-Nov-23 06:30N 35°38' E 139°45'0 0.0
2017-Nov-23 06:00N 35°38' E 139°45'0 0.0
2017-Nov-23 05:31N 35°38' E 139°45'0 0.0
2017-Nov-23 05:00N 35°38' E 139°45'0 0.0
2017-Nov-23 04:31N 35°38' E 139°45'0 0.0
2017-Nov-23 04:00N 35°38' E 139°45'0 0.0
2017-Nov-23 03:30N 35°38' E 139°45'0 0.0
2017-Nov-23 03:00N 35°38' E 139°45'0 0.0
2017-Nov-23 02:31N 35°38' E 139°45'0 0.0
2017-Nov-23 02:01N 35°38' E 139°45'0 0.0
2017-Nov-23 01:30N 35°38' E 139°45'0 0.0
2017-Nov-23 01:00N 35°38' E 139°45'0 0.0
2017-Nov-23 00:30N 35°38' E 139°45'0 0.1
2017-Nov-23 00:00N 35°38' E 139°45'2 3.9
2017-Nov-22 23:30N 35°37' E 139°47'2 3.1
2017-Nov-22 23:00N 35°35' E 139°47'2 4.2
2017-Nov-22 22:30N 35°33' E 139°49'3 6.2
2017-Nov-22 22:00N 35°36' E 139°47'2 5.0
2017-Nov-22 21:30N 35°38' E 139°45'0 0.0
2017-Nov-22 21:00N 35°38' E 139°45'0 0.0
2017-Nov-22 20:30N 35°38' E 139°45'0 0.0
2017-Nov-22 20:00N 35°38' E 139°45'0 0.0
2017-Nov-22 19:31N 35°38' E 139°45'  

Dump ship's entire track history